• Join FlightAware (Why Join?)
  • Login
  • US Flag 
12:20AM EST


 

Airport Tracker/Info


-or-


 

Live Flight TrackerFlight Track Log ✈ ASQ6159 ✈ 27-Apr-2013 ✈ KORD - KRAP

Flight Track Log - Related Links

Times and Time Zones

All times are in EDT time to prevent confusion due to time zone crossing. See the ASQ6159 flight status page for this flight to view local times or setup timezone preferences in your user account.

Time Position Orientation Groundspeed Altitude Reporting Facility
EDT Latitude Longitude Course Direction KTS MPH feet Rate Location/Type
01:17PM 41.9333 -87.9167 236° Southwest 159 183 2,500  Level Chicago TRACON
01:18PM 41.9167 -87.9500 236° Southwest 195 224 4,100 1,620 Climbing Chicago TRACON
01:19PM 41.8667 -88.0167 225° Southwest 251 289 5,700 1,560 Climbing Chicago TRACON
01:19PM 41.8356 -88.0483 217° Southwest 220 253 6,500 1,980 Climbing Chicago Center
01:20PM 41.8158 -88.1339 253° West 279 321 8,800 1,740 Climbing Chicago Center
01:21PM 41.8756 -88.2061 318° Northwest 298 343 10,100 1,560 Climbing Chicago Center
01:22PM 41.9364 -88.2822 317° Northwest 300 345 12,100 1,380 Climbing Chicago Center
01:23PM 42.0000 -88.3594 318° Northwest 309 356 13,000 420 Climbing Chicago Center
01:24PM 42.0750 -88.4553 317° Northwest 311 358 13,000  Level Chicago Center
01:25PM 42.0914 -88.5739 281° West 332 382 13,000 360 Level Chicago Center
01:27PM 42.0883 -88.7111 268° West 366 421 13,800 1,260 Climbing Chicago Center
01:28PM 42.0833 -88.8694 268° West 379 436 15,700 1,560 Climbing Chicago Center
01:29PM 42.0828 -89.0078 270° West 373 429 17,000 960 Climbing Chicago Center
01:30PM 42.0897 -89.1497 274° West 377 434 17,800 840 Climbing Chicago Center
01:31PM 42.0969 -89.2989 274° West 393 452 18,800 1,020 Climbing Chicago Center
01:32PM 42.1028 -89.4497 273° West 400 460 20,000 1,260 Climbing Chicago Center
01:33PM 42.1108 -89.6008 274° West 404 465 21,400 1,740 Climbing Chicago Center
01:34PM 42.1186 -89.7492 274° West 398 458 23,600 2,280 Climbing Chicago Center
01:35PM 42.1264 -89.9092 274° West 371 427 26,200 2,100 Climbing Chicago Center
01:36PM 42.1339 -90.0256 275° West 355 409 28,000 1,680 Climbing Chicago Center
01:37PM 42.1414 -90.1497 275° West 340 391 29,700 1,620 Climbing Chicago Center
01:38PM 42.1525 -90.2967 276° West 333 383 31,400 1,080 Climbing Chicago Center
01:39PM 42.1617 -90.4222 276° West 337 388 32,000 240 Climbing Chicago Center
01:40PM 42.1728 -90.5631 276° West 373 429 32,000  Level Chicago Center
01:41PM 42.1844 -90.7153 276° West 407 468 32,000 240 Level Chicago Center
01:42PM 42.1964 -90.8761 276° West 429 494 32,600 540 Climbing Chicago Center
01:43PM 42.2067 -91.0394 275° West 439 505 33,200 660 Climbing Chicago Center
01:44PM 42.2222 -91.2347 276° West 439 505 34,000 720 Climbing Chicago Center
01:45PM 42.2461 -91.3964 281° West 439 505 34,700 660 Climbing Chicago Center
01:46PM 42.2692 -91.5578 281° West 440 506 35,400 600 Climbing Chicago Center
01:47PM 42.2908 -91.7192 280° West 439 505 36,000 240 Climbing Chicago Center
01:48PM 42.3139 -91.8831 281° West 443 510 36,000  Level Chicago Center
01:49PM 42.3353 -92.0469 280° West 445 512 36,000  Level Chicago Center
01:50PM 42.3572 -92.2122 280° West 448 516 36,000  Level Chicago Center
01:51PM 42.3831 -92.4125 280° West 452 520 36,000  Level Chicago Center
01:52PM 42.4042 -92.5781 280° West 452 520 36,000  Level Chicago Center
01:53PM 42.4250 -92.7450 280° West 452 520 36,000  Level Chicago Center
01:54PM 42.4467 -92.9114 280° West 452 520 36,000  Level Chicago Center
01:55PM 42.4669 -93.0800 279° West 455 524 36,000  Level Chicago Center
01:56PM 42.4892 -93.2458 280° West 452 520 36,000  Level Chicago Center
01:57PM 42.5086 -93.4139 279° West 455 524 36,000  Level Chicago Center
01:59PM 42.5369 -93.6461 279° West 449 517 36,000  Level Minneapolis Center
02:00PM 42.5569 -93.8119 279° West 451 519 36,000  Level Minneapolis Center
02:01PM 42.5761 -93.9764 279° West 447 514 36,000  Level Minneapolis Center
02:02PM 42.5936 -94.1386 278° West 442 509 36,000  Level Minneapolis Center
02:03PM 42.6153 -94.3017 280° West 443 510 36,000  Level Minneapolis Center
02:04PM 42.6872 -94.4694 300° West 430 495 36,000  Level Minneapolis Center
02:05PM 42.7519 -94.6211 300° West 425 489 36,000  Level Minneapolis Center
02:06PM 42.8331 -94.8167 300° West 424 488 36,000  Level Minneapolis Center
02:07PM 42.8633 -94.9767 285° West 436 502 36,000  Level Minneapolis Center
02:08PM 42.8933 -95.1356 285° West 433 498 36,000  Level Minneapolis Center
02:09PM 42.9214 -95.2939 284° West 429 494 36,000  Level Minneapolis Center
02:10PM 42.9500 -95.4511 284° West 429 494 36,000  Level Minneapolis Center
02:11PM 42.9783 -95.6100 284° West 430 495 36,000  Level Minneapolis Center
02:12PM 43.0067 -95.7675 284° West 428 493 36,000  Level Minneapolis Center
02:13PM 43.0406 -95.9592 284° West 430 495 36,000  Level Minneapolis Center
02:15PM 43.0681 -96.1161 284° West 427 491 36,000  Level Minneapolis Center
02:16PM 43.1003 -96.3047 283° West 425 489 36,000  Level Minneapolis Center
02:17PM 43.1267 -96.4619 283° West 424 488 36,000  Level Minneapolis Center
02:18PM 43.1539 -96.6183 283° West 423 487 36,000  Level Minneapolis Center
02:19PM 43.1794 -96.7747 283° West 422 486 36,000  Level Minneapolis Center
02:20PM 43.2056 -96.9289 283° West 418 481 36,000  Level Minneapolis Center
02:21PM 43.2311 -97.0850 283° West 417 480 36,000  Level Minneapolis Center
02:22PM 43.2619 -97.2708 283° West 417 480 36,000  Level Minneapolis Center
02:23PM 43.2869 -97.4258 283° West 416 479 36,000  Level Minneapolis Center
02:24PM 43.3117 -97.5806 282° West 416 479 36,000  Level Minneapolis Center
02:25PM 43.3361 -97.7344 282° West 414 476 36,000  Level Minneapolis Center
02:26PM 43.3608 -97.8883 283° West 414 476 36,000  Level Minneapolis Center
02:27PM 43.3842 -98.0403 282° West 410 472 36,000  Level Minneapolis Center
02:28PM 43.4117 -98.2239 282° West 409 471 36,000  Level Minneapolis Center
02:29PM 43.4411 -98.4086 282° West 411 473 36,000  Level Minneapolis Center
02:30PM 43.4628 -98.5592 281° West 405 466 36,000  Level Minneapolis Center
02:31PM 43.4847 -98.7050 282° West 407 468 36,000  Level Minneapolis Center
02:32PM 43.5075 -98.8569 282° West 405 466 36,000  Level Minneapolis Center
02:33PM 43.5258 -98.9789 282° West 406 467 36,000  Level Minneapolis Center
02:34PM 43.5567 -99.1931 281° West 407 468 36,000  Level Minneapolis Center
02:36PM 43.5742 -99.3147 281° West 406 467 36,000  Level Minneapolis Center
02:37PM 43.6003 -99.4967 281° West 403 464 36,000  Level Minneapolis Center
02:38PM 43.6217 -99.6497 281° West 404 465 36,000  Level Minneapolis Center
02:39PM 43.6433 -99.8017 281° West 403 464 36,000  Level Minneapolis Center
02:40PM 43.6636 -99.9550 280° West 404 465 36,000  Level Minneapolis Center
02:41PM 43.6844 -100.1058 281° West 402 463 36,000  Level Minneapolis Center
02:42PM 43.7094 -100.2864 281° West 399 459 36,000  Level Minneapolis Center
02:43PM 43.7289 -100.4375 280° West 398 458 36,000  Level Minneapolis Center
02:44PM 43.7489 -100.5886 280° West 398 458 36,000  Level Minneapolis Center
02:45PM 43.7686 -100.7392 280° West 397 457 36,000  Level Minneapolis Center
02:46PM 43.7883 -100.8900 280° West 398 458 36,000  Level Minneapolis Center
02:47PM 43.8075 -101.0408 280° West 398 458 36,000 -120 Level Minneapolis Center
02:48PM 43.8303 -101.2192 280° West 394 453 35,800 -720 Descending Minneapolis Center
02:49PM 43.8525 -101.4000 280° West 394 453 34,600 -1,380 Descending Minneapolis Center
02:50PM 43.8700 -101.5533 279° West 402 463 33,000 -2,220 Descending Denver Center
02:51PM 43.8908 -101.7108 280° West 412 474 30,200 -2,760 Descending Denver Center
02:52PM 43.9078 -101.8639 279° West 405 466 27,400 -2,880 Descending Denver Center
02:53PM 43.9242 -102.0225 278° West 410 472 24,300 -3,120 Descending Denver Center
02:54PM 43.9444 -102.1839 280° West 418 481 21,100 -3,300 Descending Denver Center
02:55PM 43.9658 -102.3356 281° West 409 471 17,600 -3,600 Descending Denver Center
02:56PM 43.9828 -102.4817 279° West 370 426 13,800 -2,940 Descending Denver Center
02:57PM 43.9978 -102.6219 279° West 353 406 11,700 -1,740 Descending Denver Center
02:58PM 43.9989 -102.7278 271° West 290 334 10,300 -1,680 Descending Denver Center
02:59PM 43.9850 -102.8350 260° West 272 313 8,400 -2,160 Descending Denver Center
03:00PM 43.9783 -102.9192 264° West 210 242 6,000 -1,980 Descending Denver Center
03:01PM 43.9897 -102.9808 284° West 178 205 4,500 -1,260 Descending Denver Center
03:02PM 44.0147 -103.0356 302° West 159 183 3,500 -1,020 Descending Denver Center